Young Harris, Georgia
Current Conditions -  °F | °C
As of 8:35 PM on Monday 22 Dec 2014 (Local Time) from KRHP Reporting Station
Light Rain Light Rain  
Wind Chill: 46°   Ceiling: 2500
Heat Index: 47°   Visibility: 10mi
Dew Point: 47°   Wind: 5mph
Humidity: 99%   Direction: 250°WSW
Pressure: 29.88"   Gusts: NA
Location:  34.93°N, 83.85°W
Report Text: KRHP 230135Z AUTO 25004KT 10SM -RA OVC025 09/09 A2988 RMK AO2 P0001 T00860085
Loading
Personal Weather Stations






























Interactive Weather Map New forecast layout! Learn more

10-Day Weather Forecast

Advertisements
Track Severe Weather on mobile